Pemberville, OH

1:23 PM EST on December 06, 2016 (GMT -0500)
Lemoyne | | Change Station

Elev 640 ft 41.49 °N, 83.47 °W | Updated 28 seconds ago

Light Rain
Light Rain Mist
36.9 °F
Feels Like 37 °F
N
0.9
Wind Variable Wind from South
Gusts 2.5 mph

Today
High -- | Low -- °F
--% Chance of Precip.
Yesterday
High -- | Low -- °F
Precip. -- in
Pressure 29.72 in
Visibility 5.0 miles
Clouds Overcast 1500 ft
Windchill 37 °F
Dew Point 35 °F
Humidity 93%
Rainfall 0.17 in
Snow Depth Not available.
7:45 AM 5:04 PM
Waxing Crescent, 44% visible
METAR KTDZ 061753Z AUTO 08005KT 5SM -RA BR OVC015 03/02 A2970 RMK AO2 SLP062 P0006 60010 T00330017 10039 20022 58026
Pressure 29.72 in
Visibility 5.0 miles
Clouds Overcast 1500 ft
Windchill 37 °F
Dew Point 35 °F
Humidity 93%
Rainfall 0.17 in
Snow Depth Not available.
7:45 AM 5:04 PM
Waxing Crescent, 44% visible
METAR KTDZ 061753Z AUTO 08005KT 5SM -RA BR OVC015 03/02 A2970 RMK AO2 SLP062 P0006 60010 T00330017 10039 20022 58026

10-Day Weather Forecast

Almanac

Astronomy

Dec. 06, 2016 Rise Set
Actual Time
Civil Twilight
Nautical Twilight
Astronomical Twilight
Moon
Length of Visible Light
Length of Day
Tomorrow will be .
, % of the Moon is Illuminated

Today's Extremes

State Highs State Lows

Community

WunderPhotos

Upload Photos

1,955,999 photos uploaded!

WunderBlog® & News

Nearby

Air Quality

  Air Quality AQ Index Pollutant
Not available.

Snow Depth

Station Depth Elevation

Earthquake Activity

City Distance Mag. Time & Date
Minimum magnitude displayed is 2.5.

Coastal Water Temperatures

Place Temperature

Stations

Nearby Weather Stations

Station Location Temp. Windchill Dew Point Humidity Wind Precip. Elev Updated Type
                   

Watches & Warnings

There are currently no watches in effect.